Nearby METAR Reports - Updated every 30 to 60 minutes

KMYV - Marysville, California, USA
Distance from station: SE 6mi, 9.6km
Updated: Sun, 24-Jun-2018 2:53pm PDT
Clear
Clear
 Wind from SW
Wind: SW 10 mph , 17 km/h
Temperature: 102°F , 39°C
Dew Point: 55°F , 13°C
Humidity: 21%
Barometer: 29.73 inHg , 1006.8 hPa
Clouds: Clear
Visibility: 10 miles , 16 km
2018/06/24 21:53 KMYV 242153Z AUTO 22009KT 10SM CLR 39/13 A2973 RMK AO2 SLP072 T03890128 $
KOVE - Oroville, California, USA
Distance from station: 0 27mi, 45km
Updated: Sun, 24-Jun-2018 2:53pm PDT
Clear
Clear
 Wind from S
Wind: S 7 mph , 11 km/h
Temperature: 102°F , 39°C
Dew Point: 46°F , 8°C
Humidity: 15%
Barometer: 29.74 inHg , 1007.1 hPa
Clouds: Clear
Visibility: 10 miles , 16 km
2018/06/24 21:53 KOVE 242153Z AUTO 18006KT 10SM CLR 39/08 A2974 RMK AO2 SLP071 T03940083
 
KCIC - Chico Municipal, California, USA
Distance from station: NNW 50mi, 80.6km
Updated: Sun, 24-Jun-2018 2:50pm PDT
Few Clouds
Few Clouds
 Wind from SSW
Wind: SSW 6 mph , 9 km/h
Temperature: 102°F , 39°C
Dew Point: 34°F , 1°C
Humidity: 9%
Barometer: 29.73 inHg , 1006.8 hPa
Clouds: Few Clouds
Visibility: 10 miles , 16 km
Cloud details: Few Clouds 10000 ft
2018/06/24 21:50 KCIC 242150Z 21005KT 10SM FEW100 39/01 A2973
KRBL - Red Bluff, California, USA
Distance from station: NNW 85mi, 137km
Updated: Sun, 24-Jun-2018 2:54pm PDT
Clear
Clear
 Wind from ESE
Wind: ESE 7 mph , 11 km/h
Temperature: 106°F , 41°C
Dew Point: 43°F , 6°C
Humidity: 12%
Barometer: 29.72 inHg , 1006.4 hPa
Clouds: Clear
Visibility: 10 miles , 16 km
2018/06/24 21:54 KRBL 242154Z AUTO 12006KT 10SM CLR 41/06 A2972 RMK AO2 SLP057 T04110056 $
 
KRDD - Redding, California, USA
Distance from station: N 110mi, 177km
Updated: Sun, 24-Jun-2018 2:53pm PDT
Clear
Clear
 Wind from NNW
Wind: NNW 6 mph , 9 km/h
Temperature: 106°F , 41°C
Dew Point: 37°F , 3°C
Humidity: 9%
Barometer: 29.71 inHg , 1006.1 hPa
Clouds: Clear
Visibility: 10 miles , 16 km
2018/06/24 21:53 KRDD 242153Z 34005KT 10SM CLR 41/03 A2971 RMK AO2 SLP054 T04060033
KMHS - Mount Shasta, California, USA
Distance from station: N 170mi, 274km
Updated: Sun, 24-Jun-2018 2:56pm PDT
Clear
Clear
 Wind from calm
Wind: Calm
Temperature: 93°F , 34°C
Dew Point: 45°F , 7°C
Humidity: 19%
Barometer: 29.94 inHg , 1013.9 hPa
Clouds: Clear
Visibility: 10 miles , 16 km
2018/06/24 21:56 KMHS 242156Z AUTO 00000KT 10SM CLR 34/07 A2994 RMK AO2 SLP117 T03390067
 
KSIY - Montague/Siskiyou, California, USA
Distance from station: N 214mi, 3441km
Updated: Sun, 24-Jun-2018 2:53pm PDT
Clear
Clear
 Wind from varies
Wind: varies 5 mph , 7 km/h
Temperature: 91°F , 33°C
Dew Point: 39°F , 4°C
Humidity: 16%
Barometer: 29.90 inHg , 1012.5 hPa
Clouds: Clear
Visibility: 10 miles , 16 km
2018/06/24 21:53 KSIY 242153Z AUTO VRB04KT 10SM CLR 33/04 A2990 RMK AO2 SLP111 T03280044 $
KO54 - Weaverville, California, USA
Distance from station: NW 161mi, 259km
Updated: Sun, 24-Jun-2018 3:15pm PDT
Clear
Clear
 Wind from S
Wind: S 3 mph , 6 km/h
Temperature: 99°F , 37°C
Dew Point: 37°F , 3°C
Humidity: 12%
Barometer: 29.86 inHg , 1011.2 hPa
Clouds: Clear
Visibility: 10 miles , 16 km
2018/06/24 22:15 KO54 242215Z AUTO 19003KT 10SM CLR 37/03 A2986 RMK AO1
 
KO86 - Trinity Center, California, USA
Distance from station: NNW 181mi, 291km
Updated: Tue, 03-Apr-2018 9:35pm PDT
NOT Current
Partly cloudy
Partly cloudy
 Wind from W
Wind: W 3 mph , 6 km/h
Temperature: 54°F , 12°C
Dew Point: 36°F , 2°C
Humidity: 51%
Barometer: 30.02 inHg , 1016.6 hPa
Clouds: Partly cloudy
Visibility: 10 miles , 16 km
Cloud details: Partly cloudy 10000 ft
2018/04/04 04:35 KO86 040435Z AUTO 27003KT 10SM SCT100 12/02 A3002 RMK AO1
KCEC - Crescent City, California, USA
Distance from station: SE 355mi, 571km
Updated: Sun, 24-Jun-2018 2:56pm PDT
Mist, Overcast
Mist, Overcast
 Wind from NW
Wind: NW 9 mph , 15 km/h
Temperature: 57°F , 14°C
Dew Point: 54°F , 12°C
Humidity: 88%
Barometer: 29.93 inHg , 1013.5 hPa
Summary: Mist
Clouds: Overcast
Visibility: 1 1/2 miles , 2.4 km
Cloud details: Overcast 300 ft
2018/06/24 21:56 KCEC 242156Z AUTO 32008KT 1 1/2SM BR OVC003 14/12 A2993 RMK AO2 SLP137 T01390117
 
KACV - Arcata/Eureka, California, USA
Distance from station: WNW 259mi, 417km
Updated: Sun, 24-Jun-2018 3:14pm PDT
Few Clouds
Few Clouds
 Wind from NW
Wind: NW 8 mph , 13 km/h
Temperature: 61°F , 16°C
Dew Point: 54°F , 12°C
Humidity: 77%
Barometer: 29.95 inHg , 1014.2 hPa
Clouds: Few Clouds
Visibility: 10 miles , 16 km
Cloud details: Few Clouds 700 ft
2018/06/24 22:14 KACV 242214Z AUTO 31007KT 10SM FEW007 16/12 A2995 RMK AO2 T01610117
KFOT - Fortuna, California, USA
Distance from station: S 245mi, 395km
Updated: Sun, 24-Jun-2018 3:00pm PDT
Partly cloudy
Partly cloudy
 Wind from NW
Wind: NW 14 mph , 22 km/h, Gust: 17 mph , 28 km/h
Temperature: 59°F , 15°C
Dew Point: 55°F , 13°C
Humidity: 88%
Barometer: 29.96 inHg , 1014.6 hPa
Clouds: Partly cloudy
Visibility: 10 miles , 16 km
Cloud details: Partly cloudy 900 ft
2018/06/24 22:00 KFOT 242200Z AUTO 31012G15KT 10SM SCT009 15/13 A2996 RMK AO1
 
KAAT - Alturas, California, USA
Distance from station: E 256mi, 412km
Updated: Sun, 24-Jun-2018 2:55pm PDT
Clear
Clear
 Wind from NW
Wind: NW 6 mph , 9 km/h
Temperature: 88°F , 31°C
Dew Point: 36°F , 2°C
Humidity: 16%
Barometer: 30.02 inHg , 1016.6 hPa
Clouds: Clear
Visibility: 10 miles , 16 km
2018/06/24 21:55 KAAT 242155Z AUTO 31005KT 10SM CLR 31/02 A3002 RMK AO2 SLP118 T03110017
KSVE - Susanville Muni, California, USA
Distance from station: E 241mi, 145km
Updated: Sun, 24-Jun-2018 3:15pm PDT
Clear
Clear
 
Clouds: Clear
Visibility: 10 miles , 16 km
2018/06/24 22:15 KSVE 242215Z AUTO 10SM CLR RMK AO2 PWINO

spacer wunderground wow PWS SWWN Image Map